FranceFixed distance
Festival des Templiers - L'Intégrale des Causses
20 Oct2023
Distance
66.3km
Finishers
567451 men115 women
Winning time
5:55:13h
Median pace
6.11km/h
Pace distribution
566 finishers · 3.58–11.20 km/h · mean 6.25
Every finisher ran the same 66.3 km course, so these paces are directly comparable.
Histogram of finisher pace. 566 finishers ranged from 3.58 to 11.20 kilometres per hour, with a mean of 6.25 and a median of 6.11. The busiest band is 5.0 to 5.5 kilometres per hour, with 100 finishers.
Results
Ranks 551–566 of 566
| Rank | Runner | Time | Pace | Cat. | Placing |
|---|---|---|---|---|---|
| 552 | *Sulniac | 15:10:47h | 4.37 | W23 | 109th F · 36th W23 |
| 553 | *Rosieres Aux Salines | 15:19:04h | 4.33 | M70 | 444th M · 3rd M70 |
| 554 | Joggers du Couesnon | 15:26:15h | 4.29 | M50 | 445th M · 60th M50 |
| 555 | Conseil Départemental 41 | 15:30:50h | 4.27 | M55 | 446th M · 23rd M55 |
| 556 | *Paris | 15:33:40h | 4.26 | W45 | 110th F · 20th W45 |
| 557 | Védas Endurance | 15:34:42h | 4.26 | W50 | 111th F · 15th W50 |
| 557 | Coeur de Runneuses | 15:34:42h | 4.26 | W60 | 111th F · 1st W60 |
| 559 | *01120 - Dagneux | 15:35:00h | 4.25 | W23 | 113th F · 37th W23 |
| 560 | Scac | 16:05:03h | 4.12 | M40 | 447th M · 87th M40 |
| 561 | *Les Sables D Olonne | 16:15:01h | 4.08 | M55 | 448th M · 24th M55 |
| 562 | Jogging Club Sablais | 16:15:37h | 4.08 | M65 | 449th M · 4th M65 |
| 563 | les Raisins du Trail | 16:42:23h | 3.97 | W60 | 114th F · 2nd W60 |
| 563 | les Raisins du Trail | 16:42:23h | 3.97 | M45 | 450th M · 84th M45 |
| 565 | *Nancy | 17:46:48h | 3.73 | W40 | 115th F · 21st W40 |
| 566 | Team Ceramiq | 17:46:49h | 3.73 | M45 | 451st M · 85th M45 |
| 567 | *Roissy En Brie | 18:32:20h | 3.58 | M45 | 452nd M · 86th M45 |
- 552*Sulniac109th F · 36th W23Time15:10:47hPace4.37Cat.W23
- 553*Rosieres Aux Salines444th M · 3rd M70Time15:19:04hPace4.33Cat.M70
- 554Joggers du Couesnon445th M · 60th M50Time15:26:15hPace4.29Cat.M50
- 555Conseil Départemental 41446th M · 23rd M55Time15:30:50hPace4.27Cat.M55
- 556*Paris110th F · 20th W45Time15:33:40hPace4.26Cat.W45
- 557Védas Endurance111th F · 15th W50Time15:34:42hPace4.26Cat.W50
- 557Coeur de Runneuses111th F · 1st W60Time15:34:42hPace4.26Cat.W60
- 559*01120 - Dagneux113th F · 37th W23Time15:35:00hPace4.25Cat.W23
- 560Scac447th M · 87th M40Time16:05:03hPace4.12Cat.M40
- 561*Les Sables D Olonne448th M · 24th M55Time16:15:01hPace4.08Cat.M55
- 562Jogging Club Sablais449th M · 4th M65Time16:15:37hPace4.08Cat.M65
- 563les Raisins du Trail114th F · 2nd W60Time16:42:23hPace3.97Cat.W60
- 563les Raisins du Trail450th M · 84th M45Time16:42:23hPace3.97Cat.M45
- 565*Nancy115th F · 21st W40Time17:46:48hPace3.73Cat.W40
- 566Team Ceramiq451st M · 85th M45Time17:46:49hPace3.73Cat.M45
- 567*Roissy En Brie452nd M · 86th M45Time18:32:20hPace3.58Cat.M45
Showing ranks 551–566 of 566